sensor_id;sensor_type;location;lat;lon;timestamp;P1;durP1;ratioP1;P2;durP2;ratioP2
9176;SDS011;4623;54.310;10.112;2022-10-16T00:01:57;8.07;;;6.97;;
9176;SDS011;4623;54.310;10.112;2022-10-16T00:04:23;7.47;;;6.53;;
9176;SDS011;4623;54.310;10.112;2022-10-16T00:06:49;7.07;;;6.37;;
9176;SDS011;4623;54.310;10.112;2022-10-16T00:09:14;8.50;;;7.70;;
9176;SDS011;4623;54.310;10.112;2022-10-16T00:11:40;7.27;;;6.63;;
9176;SDS011;4623;54.310;10.112;2022-10-16T00:14:08;9.40;;;6.67;;
9176;SDS011;4623;54.310;10.112;2022-10-16T00:16:37;7.00;;;6.40;;
9176;SDS011;4623;54.310;10.112;2022-10-16T00:19:02;13.53;;;7.60;;
9176;SDS011;4623;54.310;10.112;2022-10-16T00:21:29;7.70;;;6.90;;
9176;SDS011;4623;54.310;10.112;2022-10-16T00:23:57;7.90;;;7.07;;
9176;SDS011;4623;54.310;10.112;2022-10-16T00:26:29;8.87;;;7.13;;
9176;SDS011;4623;54.310;10.112;2022-10-16T00:28:56;7.97;;;7.20;;
9176;SDS011;4623;54.310;10.112;2022-10-16T00:31:22;7.83;;;6.80;;
9176;SDS011;4623;54.310;10.112;2022-10-16T00:33:49;9.07;;;6.53;;
9176;SDS011;4623;54.310;10.112;2022-10-16T00:36:18;8.47;;;6.27;;
9176;SDS011;4623;54.310;10.112;2022-10-16T00:38:46;7.57;;;6.83;;
9176;SDS011;4623;54.310;10.112;2022-10-16T00:41:16;8.27;;;7.03;;
9176;SDS011;4623;54.310;10.112;2022-10-16T00:43:46;7.10;;;6.40;;
9176;SDS011;4623;54.310;10.112;2022-10-16T00:49:07;7.73;;;6.80;;
9176;SDS011;4623;54.310;10.112;2022-10-16T00:51:40;11.53;;;7.13;;
9176;SDS011;4623;54.310;10.112;2022-10-16T00:54:26;8.73;;;6.30;;
9176;SDS011;4623;54.310;10.112;2022-10-16T00:56:55;7.53;;;6.73;;
9176;SDS011;4623;54.310;10.112;2022-10-16T00:59:26;6.83;;;5.87;;
9176;SDS011;4623;54.310;10.112;2022-10-16T01:01:54;7.67;;;6.87;;
9176;SDS011;4623;54.310;10.112;2022-10-16T01:04:20;7.73;;;6.33;;
9176;SDS011;4623;54.310;10.112;2022-10-16T01:06:50;7.50;;;6.40;;
9176;SDS011;4623;54.310;10.112;2022-10-16T01:09:30;9.43;;;6.57;;
9176;SDS011;4623;54.310;10.112;2022-10-16T01:17:21;9.07;;;5.17;;
9176;SDS011;4623;54.310;10.112;2022-10-16T01:20:00;8.23;;;6.67;;
9176;SDS011;4623;54.310;10.112;2022-10-16T01:22:37;8.07;;;6.87;;
9176;SDS011;4623;54.310;10.112;2022-10-16T01:25:09;5.80;;;5.30;;
9176;SDS011;4623;54.310;10.112;2022-10-16T01:27:41;8.43;;;6.67;;
9176;SDS011;4623;54.310;10.112;2022-10-16T01:30:21;6.53;;;5.93;;
9176;SDS011;4623;54.310;10.112;2022-10-16T01:32:59;13.87;;;6.70;;
9176;SDS011;4623;54.310;10.112;2022-10-16T01:35:32;7.00;;;5.77;;
9176;SDS011;4623;54.310;10.112;2022-10-16T01:38:07;9.07;;;6.67;;
9176;SDS011;4623;54.310;10.112;2022-10-16T01:40:39;7.43;;;6.20;;
9176;SDS011;4623;54.310;10.112;2022-10-16T01:43:14;7.63;;;6.10;;
9176;SDS011;4623;54.310;10.112;2022-10-16T01:45:44;8.83;;;6.57;;
9176;SDS011;4623;54.310;10.112;2022-10-16T01:48:11;6.87;;;6.17;;
9176;SDS011;4623;54.310;10.112;2022-10-16T01:50:39;8.83;;;5.80;;
9176;SDS011;4623;54.310;10.112;2022-10-16T01:53:08;6.10;;;5.50;;
9176;SDS011;4623;54.310;10.112;2022-10-16T01:55:39;7.13;;;6.40;;
9176;SDS011;4623;54.310;10.112;2022-10-16T01:58:09;6.93;;;5.03;;
9176;SDS011;4623;54.310;10.112;2022-10-16T02:00:37;5.93;;;5.30;;
9176;SDS011;4623;54.310;10.112;2022-10-16T02:03:04;6.53;;;5.13;;
9176;SDS011;4623;54.310;10.112;2022-10-16T02:05:42;9.23;;;6.30;;
9176;SDS011;4623;54.310;10.112;2022-10-16T02:08:21;6.60;;;5.20;;
9176;SDS011;4623;54.310;10.112;2022-10-16T02:10:48;6.00;;;5.47;;
9176;SDS011;4623;54.310;10.112;2022-10-16T02:13:19;7.37;;;5.93;;
9176;SDS011;4623;54.310;10.112;2022-10-16T02:15:51;6.43;;;5.80;;
9176;SDS011;4623;54.310;10.112;2022-10-16T02:18:17;6.73;;;6.07;;
9176;SDS011;4623;54.310;10.112;2022-10-16T02:20:45;6.83;;;6.13;;
9176;SDS011;4623;54.310;10.112;2022-10-16T02:23:24;6.07;;;5.47;;
9176;SDS011;4623;54.310;10.112;2022-10-16T02:26:03;6.47;;;5.87;;
9176;SDS011;4623;54.310;10.112;2022-10-16T02:28:35;5.77;;;5.17;;
9176;SDS011;4623;54.310;10.112;2022-10-16T02:31:08;6.97;;;6.27;;
9176;SDS011;4623;54.310;10.112;2022-10-16T02:33:38;7.60;;;5.90;;
9176;SDS011;4623;54.310;10.112;2022-10-16T02:36:07;7.47;;;5.70;;
9176;SDS011;4623;54.310;10.112;2022-10-16T02:38:33;7.77;;;6.50;;
9176;SDS011;4623;54.310;10.112;2022-10-16T02:40:59;15.67;;;9.53;;
9176;SDS011;4623;54.310;10.112;2022-10-16T02:43:25;10.63;;;9.13;;
9176;SDS011;4623;54.310;10.112;2022-10-16T02:45:51;11.80;;;8.77;;
9176;SDS011;4623;54.310;10.112;2022-10-16T02:48:17;17.47;;;8.93;;
9176;SDS011;4623;54.310;10.112;2022-10-16T02:50:42;11.07;;;7.90;;
9176;SDS011;4623;54.310;10.112;2022-10-16T02:53:08;7.77;;;6.57;;
9176;SDS011;4623;54.310;10.112;2022-10-16T02:55:34;8.53;;;6.60;;
9176;SDS011;4623;54.310;10.112;2022-10-16T02:57:59;6.93;;;6.17;;
9176;SDS011;4623;54.310;10.112;2022-10-16T03:00:25;7.27;;;6.27;;
9176;SDS011;4623;54.310;10.112;2022-10-16T03:02:50;7.23;;;6.33;;
9176;SDS011;4623;54.310;10.112;2022-10-16T03:05:16;8.50;;;6.10;;
9176;SDS011;4623;54.310;10.112;2022-10-16T03:07:42;8.30;;;5.60;;
9176;SDS011;4623;54.310;10.112;2022-10-16T03:10:07;5.83;;;5.33;;
9176;SDS011;4623;54.310;10.112;2022-10-16T03:12:34;5.93;;;4.90;;
9176;SDS011;4623;54.310;10.112;2022-10-16T03:14:59;6.23;;;5.50;;
9176;SDS011;4623;54.310;10.112;2022-10-16T03:17:25;6.73;;;5.60;;
9176;SDS011;4623;54.310;10.112;2022-10-16T03:19:51;5.97;;;5.30;;
9176;SDS011;4623;54.310;10.112;2022-10-16T03:22:16;6.77;;;5.63;;
9176;SDS011;4623;54.310;10.112;2022-10-16T03:24:42;6.93;;;5.07;;
9176;SDS011;4623;54.310;10.112;2022-10-16T03:27:08;6.47;;;4.80;;
9176;SDS011;4623;54.310;10.112;2022-10-16T03:29:33;10.73;;;5.10;;
9176;SDS011;4623;54.310;10.112;2022-10-16T03:31:59;6.80;;;4.87;;
9176;SDS011;4623;54.310;10.112;2022-10-16T03:34:25;5.13;;;4.20;;
9176;SDS011;4623;54.310;10.112;2022-10-16T03:36:51;5.90;;;4.33;;
9176;SDS011;4623;54.310;10.112;2022-10-16T03:39:17;4.07;;;3.77;;
9176;SDS011;4623;54.310;10.112;2022-10-16T03:41:43;5.87;;;4.20;;
9176;SDS011;4623;54.310;10.112;2022-10-16T03:44:09;6.07;;;4.07;;
9176;SDS011;4623;54.310;10.112;2022-10-16T03:46:34;3.83;;;3.40;;
9176;SDS011;4623;54.310;10.112;2022-10-16T03:49:00;5.77;;;3.70;;
9176;SDS011;4623;54.310;10.112;2022-10-16T03:51:25;6.67;;;4.03;;
9176;SDS011;4623;54.310;10.112;2022-10-16T03:53:51;4.87;;;3.30;;
9176;SDS011;4623;54.310;10.112;2022-10-16T03:56:16;4.70;;;3.40;;
9176;SDS011;4623;54.310;10.112;2022-10-16T03:58:42;4.57;;;3.13;;
9176;SDS011;4623;54.310;10.112;2022-10-16T04:01:08;6.23;;;2.93;;
9176;SDS011;4623;54.310;10.112;2022-10-16T04:03:33;5.13;;;3.03;;
9176;SDS011;4623;54.310;10.112;2022-10-16T04:05:59;4.93;;;3.10;;
9176;SDS011;4623;54.310;10.112;2022-10-16T04:08:24;5.90;;;3.47;;
9176;SDS011;4623;54.310;10.112;2022-10-16T04:10:50;6.00;;;3.07;;
9176;SDS011;4623;54.310;10.112;2022-10-16T04:13:16;5.67;;;2.97;;
9176;SDS011;4623;54.310;10.112;2022-10-16T04:15:42;4.50;;;2.93;;
9176;SDS011;4623;54.310;10.112;2022-10-16T04:18:07;4.47;;;3.20;;
9176;SDS011;4623;54.310;10.112;2022-10-16T04:20:33;6.53;;;2.50;;
9176;SDS011;4623;54.310;10.112;2022-10-16T04:22:59;4.53;;;2.83;;
9176;SDS011;4623;54.310;10.112;2022-10-16T04:25:24;3.80;;;3.37;;
9176;SDS011;4623;54.310;10.112;2022-10-16T04:27:52;2.93;;;2.67;;
9176;SDS011;4623;54.310;10.112;2022-10-16T04:30:18;4.43;;;2.70;;
9176;SDS011;4623;54.310;10.112;2022-10-16T04:32:48;4.77;;;2.87;;
9176;SDS011;4623;54.310;10.112;2022-10-16T04:35:17;3.50;;;2.67;;
9176;SDS011;4623;54.310;10.112;2022-10-16T04:37:44;2.87;;;2.67;;
9176;SDS011;4623;54.310;10.112;2022-10-16T04:40:09;4.27;;;2.57;;
9176;SDS011;4623;54.310;10.112;2022-10-16T04:42:35;3.90;;;2.77;;
9176;SDS011;4623;54.310;10.112;2022-10-16T04:45:01;4.20;;;2.67;;
9176;SDS011;4623;54.310;10.112;2022-10-16T04:47:26;5.57;;;2.40;;
9176;SDS011;4623;54.310;10.112;2022-10-16T04:49:52;6.37;;;2.97;;
9176;SDS011;4623;54.310;10.112;2022-10-16T04:52:17;6.73;;;2.57;;
9176;SDS011;4623;54.310;10.112;2022-10-16T04:54:44;6.27;;;2.50;;
9176;SDS011;4623;54.310;10.112;2022-10-16T04:57:10;4.10;;;2.10;;
9176;SDS011;4623;54.310;10.112;2022-10-16T04:59:36;4.00;;;2.80;;
9176;SDS011;4623;54.310;10.112;2022-10-16T05:02:02;7.77;;;2.83;;
9176;SDS011;4623;54.310;10.112;2022-10-16T05:04:27;3.00;;;2.57;;
9176;SDS011;4623;54.310;10.112;2022-10-16T05:06:53;6.27;;;3.00;;
9176;SDS011;4623;54.310;10.112;2022-10-16T05:09:18;4.20;;;1.93;;
9176;SDS011;4623;54.310;10.112;2022-10-16T05:11:44;3.67;;;2.37;;
9176;SDS011;4623;54.310;10.112;2022-10-16T05:14:10;3.70;;;2.27;;
9176;SDS011;4623;54.310;10.112;2022-10-16T05:16:35;2.93;;;2.10;;
9176;SDS011;4623;54.310;10.112;2022-10-16T05:19:01;5.63;;;2.77;;
9176;SDS011;4623;54.310;10.112;2022-10-16T05:21:26;2.50;;;2.30;;
9176;SDS011;4623;54.310;10.112;2022-10-16T05:23:52;4.33;;;2.27;;
9176;SDS011;4623;54.310;10.112;2022-10-16T05:26:19;3.47;;;2.47;;
9176;SDS011;4623;54.310;10.112;2022-10-16T05:28:45;5.70;;;2.27;;
9176;SDS011;4623;54.310;10.112;2022-10-16T05:31:12;6.10;;;2.57;;
9176;SDS011;4623;54.310;10.112;2022-10-16T05:33:37;4.17;;;2.50;;
9176;SDS011;4623;54.310;10.112;2022-10-16T05:36:04;3.20;;;2.27;;
9176;SDS011;4623;54.310;10.112;2022-10-16T05:38:32;2.67;;;2.00;;
9176;SDS011;4623;54.310;10.112;2022-10-16T05:40:58;2.60;;;2.27;;
9176;SDS011;4623;54.310;10.112;2022-10-16T05:43:24;5.27;;;2.63;;
9176;SDS011;4623;54.310;10.112;2022-10-16T05:45:55;4.87;;;2.20;;
9176;SDS011;4623;54.310;10.112;2022-10-16T05:48:22;4.77;;;2.50;;
9176;SDS011;4623;54.310;10.112;2022-10-16T05:50:48;7.07;;;2.67;;
9176;SDS011;4623;54.310;10.112;2022-10-16T05:53:22;2.70;;;2.13;;
9176;SDS011;4623;54.310;10.112;2022-10-16T05:55:53;5.73;;;2.83;;
9176;SDS011;4623;54.310;10.112;2022-10-16T05:58:20;4.80;;;2.27;;
9176;SDS011;4623;54.310;10.112;2022-10-16T06:00:59;5.50;;;2.20;;
9176;SDS011;4623;54.310;10.112;2022-10-16T06:03:30;3.27;;;2.23;;
9176;SDS011;4623;54.310;10.112;2022-10-16T06:05:55;4.67;;;2.47;;
9176;SDS011;4623;54.310;10.112;2022-10-16T06:08:21;3.33;;;1.93;;
9176;SDS011;4623;54.310;10.112;2022-10-16T06:10:48;3.97;;;2.47;;
9176;SDS011;4623;54.310;10.112;2022-10-16T06:13:24;3.63;;;2.23;;
9176;SDS011;4623;54.310;10.112;2022-10-16T06:15:50;3.73;;;2.17;;
9176;SDS011;4623;54.310;10.112;2022-10-16T06:18:15;4.40;;;2.20;;
9176;SDS011;4623;54.310;10.112;2022-10-16T06:20:41;3.63;;;1.93;;
9176;SDS011;4623;54.310;10.112;2022-10-16T06:23:07;5.27;;;2.27;;
9176;SDS011;4623;54.310;10.112;2022-10-16T06:25:32;4.10;;;2.00;;
9176;SDS011;4623;54.310;10.112;2022-10-16T06:27:58;4.40;;;2.43;;
9176;SDS011;4623;54.310;10.112;2022-10-16T06:30:24;5.20;;;1.97;;
9176;SDS011;4623;54.310;10.112;2022-10-16T06:32:49;3.70;;;2.33;;
9176;SDS011;4623;54.310;10.112;2022-10-16T06:35:15;4.77;;;1.87;;
9176;SDS011;4623;54.310;10.112;2022-10-16T06:37:41;3.00;;;2.20;;
9176;SDS011;4623;54.310;10.112;2022-10-16T06:40:07;2.93;;;2.30;;
9176;SDS011;4623;54.310;10.112;2022-10-16T06:42:33;3.20;;;1.90;;
9176;SDS011;4623;54.310;10.112;2022-10-16T06:44:58;2.00;;;1.80;;
9176;SDS011;4623;54.310;10.112;2022-10-16T06:47:24;4.70;;;1.70;;
9176;SDS011;4623;54.310;10.112;2022-10-16T06:49:50;5.63;;;3.03;;
9176;SDS011;4623;54.310;10.112;2022-10-16T06:52:15;5.40;;;2.30;;
9176;SDS011;4623;54.310;10.112;2022-10-16T06:54:41;2.27;;;2.07;;
9176;SDS011;4623;54.310;10.112;2022-10-16T06:57:06;3.93;;;2.50;;
9176;SDS011;4623;54.310;10.112;2022-10-16T06:59:32;3.60;;;2.07;;
9176;SDS011;4623;54.310;10.112;2022-10-16T07:01:58;3.43;;;2.20;;
9176;SDS011;4623;54.310;10.112;2022-10-16T07:04:23;4.80;;;2.63;;
9176;SDS011;4623;54.310;10.112;2022-10-16T07:06:49;4.27;;;2.30;;
9176;SDS011;4623;54.310;10.112;2022-10-16T07:09:16;2.87;;;1.90;;
9176;SDS011;4623;54.310;10.112;2022-10-16T07:11:42;2.33;;;2.13;;
9176;SDS011;4623;54.310;10.112;2022-10-16T07:14:17;4.60;;;1.90;;
9176;SDS011;4623;54.310;10.112;2022-10-16T07:16:44;2.27;;;1.97;;
9176;SDS011;4623;54.310;10.112;2022-10-16T07:19:10;2.60;;;2.23;;
9176;SDS011;4623;54.310;10.112;2022-10-16T07:21:37;3.93;;;2.20;;
9176;SDS011;4623;54.310;10.112;2022-10-16T07:24:03;5.47;;;2.63;;
9176;SDS011;4623;54.310;10.112;2022-10-16T07:26:32;4.60;;;1.97;;
9176;SDS011;4623;54.310;10.112;2022-10-16T07:28:59;2.83;;;2.50;;
9176;SDS011;4623;54.310;10.112;2022-10-16T07:31:25;3.47;;;2.40;;
9176;SDS011;4623;54.310;10.112;2022-10-16T07:33:52;3.43;;;2.43;;
9176;SDS011;4623;54.310;10.112;2022-10-16T07:36:18;3.10;;;2.20;;
9176;SDS011;4623;54.310;10.112;2022-10-16T07:38:45;2.17;;;1.90;;
9176;SDS011;4623;54.310;10.112;2022-10-16T07:41:15;3.63;;;2.33;;
9176;SDS011;4623;54.310;10.112;2022-10-16T07:43:46;4.20;;;2.80;;
9176;SDS011;4623;54.310;10.112;2022-10-16T07:46:17;3.87;;;2.37;;
9176;SDS011;4623;54.310;10.112;2022-10-16T07:48:44;4.53;;;3.00;;
9176;SDS011;4623;54.310;10.112;2022-10-16T07:51:12;4.13;;;2.00;;
9176;SDS011;4623;54.310;10.112;2022-10-16T07:53:48;3.43;;;2.27;;
9176;SDS011;4623;54.310;10.112;2022-10-16T07:56:14;2.97;;;2.43;;
9176;SDS011;4623;54.310;10.112;2022-10-16T07:58:41;3.23;;;2.13;;
9176;SDS011;4623;54.310;10.112;2022-10-16T08:01:08;4.47;;;2.47;;
9176;SDS011;4623;54.310;10.112;2022-10-16T08:03:36;5.10;;;2.90;;
9176;SDS011;4623;54.310;10.112;2022-10-16T08:06:02;3.37;;;2.93;;
9176;SDS011;4623;54.310;10.112;2022-10-16T08:08:28;6.07;;;2.67;;
9176;SDS011;4623;54.310;10.112;2022-10-16T08:10:55;3.60;;;2.60;;
9176;SDS011;4623;54.310;10.112;2022-10-16T08:13:21;3.00;;;2.63;;
9176;SDS011;4623;54.310;10.112;2022-10-16T08:15:47;5.77;;;2.53;;
9176;SDS011;4623;54.310;10.112;2022-10-16T08:18:13;4.63;;;2.73;;
9176;SDS011;4623;54.310;10.112;2022-10-16T08:20:39;4.53;;;2.80;;
9176;SDS011;4623;54.310;10.112;2022-10-16T08:23:06;4.63;;;2.63;;
9176;SDS011;4623;54.310;10.112;2022-10-16T08:25:34;3.73;;;2.70;;
9176;SDS011;4623;54.310;10.112;2022-10-16T08:28:03;2.97;;;2.17;;
9176;SDS011;4623;54.310;10.112;2022-10-16T08:30:30;3.80;;;2.33;;
9176;SDS011;4623;54.310;10.112;2022-10-16T08:32:56;5.10;;;3.67;;
9176;SDS011;4623;54.310;10.112;2022-10-16T08:35:23;3.78;;;2.78;;
9176;SDS011;4623;54.310;10.112;2022-10-16T08:37:49;11.45;;;3.22;;
9176;SDS011;4623;54.310;10.112;2022-10-16T08:45:46;4.40;;;3.15;;
9176;SDS011;4623;54.310;10.112;2022-10-16T08:48:35;5.03;;;3.78;;
9176;SDS011;4623;54.310;10.112;2022-10-16T08:51:03;3.85;;;3.00;;
9176;SDS011;4623;54.310;10.112;2022-10-16T08:53:41;5.20;;;2.90;;
9176;SDS011;4623;54.310;10.112;2022-10-16T08:56:11;4.28;;;3.15;;
9176;SDS011;4623;54.310;10.112;2022-10-16T08:58:37;4.43;;;2.50;;
9176;SDS011;4623;54.310;10.112;2022-10-16T09:01:11;4.60;;;3.40;;
9176;SDS011;4623;54.310;10.112;2022-10-16T09:16:53;7.72;;;3.67;;
9176;SDS011;4623;54.310;10.112;2022-10-16T09:19:33;4.53;;;3.08;;
9176;SDS011;4623;54.310;10.112;2022-10-16T09:22:10;4.22;;;2.83;;
9176;SDS011;4623;54.310;10.112;2022-10-16T09:24:39;7.15;;;2.95;;
9176;SDS011;4623;54.310;10.112;2022-10-16T09:27:12;5.53;;;3.10;;
9176;SDS011;4623;54.310;10.112;2022-10-16T09:29:39;4.50;;;2.75;;
9176;SDS011;4623;54.310;10.112;2022-10-16T09:32:17;3.95;;;2.67;;
9176;SDS011;4623;54.310;10.112;2022-10-16T09:34:47;8.45;;;2.70;;
9176;SDS011;4623;54.310;10.112;2022-10-16T09:37:20;5.75;;;2.20;;
9176;SDS011;4623;54.310;10.112;2022-10-16T09:39:51;4.95;;;2.65;;
9176;SDS011;4623;54.310;10.112;2022-10-16T09:42:19;4.20;;;2.83;;
9176;SDS011;4623;54.310;10.112;2022-10-16T09:44:50;2.55;;;2.30;;
9176;SDS011;4623;54.310;10.112;2022-10-16T09:47:19;3.80;;;2.45;;
9176;SDS011;4623;54.310;10.112;2022-10-16T09:49:55;7.82;;;2.65;;
9176;SDS011;4623;54.310;10.112;2022-10-16T09:52:30;2.97;;;2.05;;
9176;SDS011;4623;54.310;10.112;2022-10-16T09:54:58;3.50;;;2.25;;
9176;SDS011;4623;54.310;10.112;2022-10-16T09:57:25;5.63;;;2.38;;
9176;SDS011;4623;54.310;10.112;2022-10-16T10:02:20;7.18;;;2.83;;
9176;SDS011;4623;54.310;10.112;2022-10-16T10:04:52;3.53;;;2.30;;
9176;SDS011;4623;54.310;10.112;2022-10-16T10:07:25;5.03;;;2.40;;
9176;SDS011;4623;54.310;10.112;2022-10-16T10:09:53;4.25;;;2.33;;
9176;SDS011;4623;54.310;10.112;2022-10-16T10:14:50;6.22;;;2.60;;
9176;SDS011;4623;54.310;10.112;2022-10-16T10:17:19;3.67;;;2.30;;
9176;SDS011;4623;54.310;10.112;2022-10-16T10:19:50;5.43;;;2.42;;
9176;SDS011;4623;54.310;10.112;2022-10-16T10:27:23;3.72;;;2.72;;
9176;SDS011;4623;54.310;10.112;2022-10-16T10:30:15;7.78;;;3.13;;
9176;SDS011;4623;54.310;10.112;2022-10-16T10:32:50;7.38;;;2.95;;
9176;SDS011;4623;54.310;10.112;2022-10-16T10:35:20;4.25;;;2.63;;
9176;SDS011;4623;54.310;10.112;2022-10-16T10:38:50;5.78;;;3.03;;
9176;SDS011;4623;54.310;10.112;2022-10-16T10:46:08;7.30;;;3.30;;
9176;SDS011;4623;54.310;10.112;2022-10-16T10:48:44;6.45;;;2.70;;
9176;SDS011;4623;54.310;10.112;2022-10-16T10:51:22;8.68;;;3.00;;
9176;SDS011;4623;54.310;10.112;2022-10-16T10:53:59;5.78;;;2.58;;
9176;SDS011;4623;54.310;10.112;2022-10-16T10:56:49;3.95;;;2.33;;
9176;SDS011;4623;54.310;10.112;2022-10-16T11:02:40;3.10;;;2.22;;
9176;SDS011;4623;54.310;10.112;2022-10-16T11:07:45;4.47;;;2.28;;
9176;SDS011;4623;54.310;10.112;2022-10-16T11:10:20;7.35;;;2.55;;
9176;SDS011;4623;54.310;10.112;2022-10-16T11:12:58;2.88;;;1.85;;
9176;SDS011;4623;54.310;10.112;2022-10-16T11:15:45;4.55;;;2.28;;
9176;SDS011;4623;54.310;10.112;2022-10-16T11:18:17;5.00;;;2.47;;
9176;SDS011;4623;54.310;10.112;2022-10-16T11:20:51;2.85;;;2.33;;
9176;SDS011;4623;54.310;10.112;2022-10-16T11:23:26;5.20;;;2.55;;
9176;SDS011;4623;54.310;10.112;2022-10-16T11:25:54;7.25;;;2.50;;
9176;SDS011;4623;54.310;10.112;2022-10-16T11:28:24;5.60;;;2.15;;
9176;SDS011;4623;54.310;10.112;2022-10-16T11:33:44;3.60;;;1.95;;
9176;SDS011;4623;54.310;10.112;2022-10-16T11:36:33;4.30;;;2.53;;
9176;SDS011;4623;54.310;10.112;2022-10-16T11:39:21;8.60;;;2.83;;
9176;SDS011;4623;54.310;10.112;2022-10-16T11:49:33;3.90;;;1.95;;
9176;SDS011;4623;54.310;10.112;2022-10-16T11:52:19;5.20;;;2.10;;
9176;SDS011;4623;54.310;10.112;2022-10-16T11:55:05;4.35;;;1.92;;
9176;SDS011;4623;54.310;10.112;2022-10-16T11:57:42;6.45;;;2.50;;
9176;SDS011;4623;54.310;10.112;2022-10-16T12:08:14;6.55;;;2.42;;
9176;SDS011;4623;54.310;10.112;2022-10-16T12:10:42;6.63;;;3.05;;
9176;SDS011;4623;54.310;10.112;2022-10-16T12:18:37;5.18;;;2.30;;
9176;SDS011;4623;54.310;10.112;2022-10-16T12:21:03;1.60;;;1.50;;
9176;SDS011;4623;54.310;10.112;2022-10-16T12:23:31;6.38;;;2.13;;
9176;SDS011;4623;54.310;10.112;2022-10-16T12:26:11;6.75;;;2.63;;
9176;SDS011;4623;54.310;10.112;2022-10-16T12:28:37;4.40;;;2.15;;
9176;SDS011;4623;54.310;10.112;2022-10-16T12:31:07;4.40;;;1.83;;
9176;SDS011;4623;54.310;10.112;2022-10-16T12:33:35;7.30;;;2.05;;
9176;SDS011;4623;54.310;10.112;2022-10-16T12:36:08;4.15;;;2.10;;
9176;SDS011;4623;54.310;10.112;2022-10-16T12:38:46;7.15;;;2.38;;
9176;SDS011;4623;54.310;10.112;2022-10-16T12:41:23;3.90;;;1.90;;
9176;SDS011;4623;54.310;10.112;2022-10-16T12:44:01;2.90;;;1.95;;
9176;SDS011;4623;54.310;10.112;2022-10-16T12:49:18;5.00;;;1.90;;
9176;SDS011;4623;54.310;10.112;2022-10-16T12:51:49;7.80;;;2.47;;
9176;SDS011;4623;54.310;10.112;2022-10-16T12:54:19;8.00;;;2.88;;
9176;SDS011;4623;54.310;10.112;2022-10-16T12:59:43;5.38;;;2.40;;
9176;SDS011;4623;54.310;10.112;2022-10-16T13:02:48;3.83;;;2.50;;
9176;SDS011;4623;54.310;10.112;2022-10-16T13:07:55;4.93;;;2.17;;
9176;SDS011;4623;54.310;10.112;2022-10-16T13:10:47;4.45;;;2.05;;
9176;SDS011;4623;54.310;10.112;2022-10-16T13:17:29;7.25;;;2.60;;
9176;SDS011;4623;54.310;10.112;2022-10-16T13:22:34;5.43;;;2.30;;
9176;SDS011;4623;54.310;10.112;2022-10-16T13:25:50;3.95;;;2.10;;
9176;SDS011;4623;54.310;10.112;2022-10-16T13:27:59;5.45;;;1.95;;
9176;SDS011;4623;54.310;10.112;2022-10-16T13:30:28;5.00;;;2.40;;
9176;SDS011;4623;54.310;10.112;2022-10-16T13:33:02;3.58;;;2.10;;
9176;SDS011;4623;54.310;10.112;2022-10-16T13:35:33;5.95;;;2.58;;
9176;SDS011;4623;54.310;10.112;2022-10-16T13:38:04;6.10;;;2.15;;
9176;SDS011;4623;54.310;10.112;2022-10-16T13:40:36;5.05;;;1.92;;
9176;SDS011;4623;54.310;10.112;2022-10-16T13:43:01;6.05;;;2.38;;
9176;SDS011;4623;54.310;10.112;2022-10-16T13:45:27;4.53;;;1.80;;
9176;SDS011;4623;54.310;10.112;2022-10-16T13:48:11;3.90;;;1.90;;
9176;SDS011;4623;54.310;10.112;2022-10-16T13:50:37;4.10;;;1.90;;
9176;SDS011;4623;54.310;10.112;2022-10-16T13:53:13;3.15;;;2.05;;
9176;SDS011;4623;54.310;10.112;2022-10-16T13:55:39;4.22;;;1.83;;
9176;SDS011;4623;54.310;10.112;2022-10-16T13:58:10;4.70;;;2.05;;
9176;SDS011;4623;54.310;10.112;2022-10-16T14:00:37;7.07;;;2.42;;
9176;SDS011;4623;54.310;10.112;2022-10-16T14:03:07;5.60;;;2.15;;
9176;SDS011;4623;54.310;10.112;2022-10-16T14:05:45;7.47;;;2.03;;
9176;SDS011;4623;54.310;10.112;2022-10-16T14:08:17;7.30;;;2.83;;
9176;SDS011;4623;54.310;10.112;2022-10-16T14:10:46;5.45;;;2.53;;
9176;SDS011;4623;54.310;10.112;2022-10-16T14:13:16;5.80;;;2.20;;
9176;SDS011;4623;54.310;10.112;2022-10-16T14:15:48;5.38;;;1.95;;
9176;SDS011;4623;54.310;10.112;2022-10-16T14:18:17;4.90;;;2.03;;
9176;SDS011;4623;54.310;10.112;2022-10-16T14:20:49;4.63;;;2.05;;
9176;SDS011;4623;54.310;10.112;2022-10-16T14:23:28;3.97;;;2.03;;
9176;SDS011;4623;54.310;10.112;2022-10-16T14:26:05;3.10;;;2.10;;
9176;SDS011;4623;54.310;10.112;2022-10-16T14:28:34;7.47;;;2.17;;
9176;SDS011;4623;54.310;10.112;2022-10-16T14:31:02;7.70;;;2.73;;
9176;SDS011;4623;54.310;10.112;2022-10-16T14:33:48;4.07;;;2.30;;
9176;SDS011;4623;54.310;10.112;2022-10-16T14:36:14;6.00;;;2.03;;
9176;SDS011;4623;54.310;10.112;2022-10-16T14:38:48;5.07;;;2.20;;
9176;SDS011;4623;54.310;10.112;2022-10-16T14:41:14;3.03;;;1.70;;
9176;SDS011;4623;54.310;10.112;2022-10-16T14:43:41;5.43;;;2.40;;
9176;SDS011;4623;54.310;10.112;2022-10-16T14:46:14;4.43;;;1.93;;
9176;SDS011;4623;54.310;10.112;2022-10-16T14:48:43;5.30;;;2.30;;
9176;SDS011;4623;54.310;10.112;2022-10-16T14:51:13;7.43;;;2.73;;
9176;SDS011;4623;54.310;10.112;2022-10-16T14:53:39;9.10;;;2.40;;
9176;SDS011;4623;54.310;10.112;2022-10-16T14:56:06;5.93;;;2.77;;
9176;SDS011;4623;54.310;10.112;2022-10-16T14:58:43;4.90;;;2.30;;
9176;SDS011;4623;54.310;10.112;2022-10-16T15:01:09;3.87;;;2.00;;
9176;SDS011;4623;54.310;10.112;2022-10-16T15:03:39;4.50;;;2.17;;
9176;SDS011;4623;54.310;10.112;2022-10-16T15:06:08;3.53;;;1.90;;
9176;SDS011;4623;54.310;10.112;2022-10-16T15:08:39;6.97;;;2.20;;
9176;SDS011;4623;54.310;10.112;2022-10-16T15:11:05;5.77;;;2.73;;
9176;SDS011;4623;54.310;10.112;2022-10-16T15:13:42;10.57;;;2.33;;
9176;SDS011;4623;54.310;10.112;2022-10-16T15:16:12;5.33;;;2.50;;
9176;SDS011;4623;54.310;10.112;2022-10-16T15:18:41;6.60;;;2.40;;
9176;SDS011;4623;54.310;10.112;2022-10-16T15:21:07;7.37;;;3.00;;
9176;SDS011;4623;54.310;10.112;2022-10-16T15:23:49;4.47;;;2.10;;
9176;SDS011;4623;54.310;10.112;2022-10-16T15:26:15;5.53;;;2.60;;
9176;SDS011;4623;54.310;10.112;2022-10-16T15:28:41;7.77;;;2.67;;
9176;SDS011;4623;54.310;10.112;2022-10-16T15:31:07;6.23;;;2.40;;
9176;SDS011;4623;54.310;10.112;2022-10-16T15:33:32;6.60;;;2.63;;
9176;SDS011;4623;54.310;10.112;2022-10-16T15:36:00;9.87;;;2.80;;
9176;SDS011;4623;54.310;10.112;2022-10-16T15:38:26;7.90;;;2.70;;
9176;SDS011;4623;54.310;10.112;2022-10-16T15:40:53;7.83;;;2.53;;
9176;SDS011;4623;54.310;10.112;2022-10-16T15:43:19;9.07;;;3.20;;
9176;SDS011;4623;54.310;10.112;2022-10-16T15:45:47;9.00;;;3.00;;
9176;SDS011;4623;54.310;10.112;2022-10-16T15:48:31;11.23;;;3.90;;
9176;SDS011;4623;54.310;10.112;2022-10-16T15:50:57;6.43;;;2.90;;
9176;SDS011;4623;54.310;10.112;2022-10-16T15:53:23;5.67;;;2.40;;
9176;SDS011;4623;54.310;10.112;2022-10-16T15:55:48;8.60;;;2.93;;
9176;SDS011;4623;54.310;10.112;2022-10-16T15:58:14;6.00;;;2.73;;
9176;SDS011;4623;54.310;10.112;2022-10-16T16:00:40;8.87;;;3.40;;
9176;SDS011;4623;54.310;10.112;2022-10-16T16:03:05;8.90;;;3.37;;
9176;SDS011;4623;54.310;10.112;2022-10-16T16:05:31;9.03;;;3.57;;
9176;SDS011;4623;54.310;10.112;2022-10-16T16:07:58;8.37;;;2.73;;
9176;SDS011;4623;54.310;10.112;2022-10-16T16:10:24;8.77;;;3.03;;
9176;SDS011;4623;54.310;10.112;2022-10-16T16:12:49;5.50;;;2.23;;
9176;SDS011;4623;54.310;10.112;2022-10-16T16:15:18;6.43;;;2.47;;
9176;SDS011;4623;54.310;10.112;2022-10-16T16:17:44;8.47;;;2.90;;
9176;SDS011;4623;54.310;10.112;2022-10-16T16:20:10;6.47;;;3.03;;
9176;SDS011;4623;54.310;10.112;2022-10-16T16:22:36;6.07;;;2.50;;
9176;SDS011;4623;54.310;10.112;2022-10-16T16:25:02;5.97;;;3.27;;
9176;SDS011;4623;54.310;10.112;2022-10-16T16:27:27;8.37;;;2.70;;
9176;SDS011;4623;54.310;10.112;2022-10-16T16:29:55;4.93;;;2.57;;
9176;SDS011;4623;54.310;10.112;2022-10-16T16:32:21;7.57;;;2.67;;
9176;SDS011;4623;54.310;10.112;2022-10-16T16:34:46;5.53;;;2.80;;
9176;SDS011;4623;54.310;10.112;2022-10-16T16:37:12;5.60;;;2.50;;
9176;SDS011;4623;54.310;10.112;2022-10-16T16:39:38;5.63;;;2.37;;
9176;SDS011;4623;54.310;10.112;2022-10-16T16:42:04;7.30;;;3.03;;